createdAt,value
2023-05-27T00:00:21.283Z,85.50
2023-05-27T00:02:48.395Z,86.15
2023-05-27T00:05:15.021Z,87.00
2023-05-27T00:07:42.236Z,86.83
2023-05-27T00:10:09.082Z,86.86
2023-05-27T00:12:35.967Z,87.95
2023-05-27T00:15:02.667Z,87.92
2023-05-27T00:17:29.222Z,87.46
2023-05-27T00:19:56.122Z,86.69
2023-05-27T00:22:24.102Z,87.85
2023-05-27T00:24:50.868Z,88.35
2023-05-27T00:27:18.685Z,88.57
2023-05-27T00:29:45.534Z,88.88
2023-05-27T00:32:12.071Z,88.52
2023-05-27T00:34:38.644Z,90.49
2023-05-27T00:37:06.461Z,89.75
2023-05-27T00:39:33.240Z,89.35
2023-05-27T00:42:01.968Z,89.37
2023-05-27T00:44:29.115Z,90.53
2023-05-27T00:46:56.418Z,89.92
2023-05-27T00:49:26.443Z,89.86
2023-05-27T00:51:53.379Z,91.02
2023-05-27T00:54:20.272Z,91.40
2023-05-27T00:56:47.330Z,91.24
2023-05-27T00:59:13.913Z,91.48
2023-05-27T01:01:44.505Z,91.45
2023-05-27T01:04:13.896Z,91.66
2023-05-27T01:07:22.927Z,92.29
2023-05-27T01:10:01.248Z,91.13
2023-05-27T01:12:49.335Z,91.02
2023-05-27T01:15:16.051Z,92.55
2023-05-27T01:17:47.098Z,92.68
2023-05-27T01:20:15.742Z,92.91
2023-05-27T01:22:45.379Z,92.99
2023-05-27T01:25:12.010Z,94.09
2023-05-27T01:27:41.725Z,93.89
2023-05-27T01:30:09.557Z,93.46
2023-05-27T01:32:52.462Z,93.56
2023-05-27T01:35:41.165Z,94.76
2023-05-27T01:38:11.462Z,95.66
2023-05-27T01:40:40.922Z,95.08
2023-05-27T01:43:10.833Z,95.54
2023-05-27T01:45:37.582Z,95.62
2023-05-27T01:48:05.280Z,96.12
2023-05-27T01:50:32.651Z,96.71
2023-05-27T01:52:59.549Z,96.87
2023-05-27T01:55:26.735Z,96.73
2023-05-27T01:57:54.001Z,96.66
2023-05-27T02:00:21.343Z,96.57
2023-05-27T02:02:48.649Z,96.52
2023-05-27T02:05:15.488Z,97.07
2023-05-27T02:07:42.715Z,96.20
2023-05-27T02:10:11.039Z,96.07
2023-05-27T02:12:37.552Z,97.03
2023-05-27T02:15:04.487Z,97.04
2023-05-27T02:17:31.368Z,97.62
2023-05-27T02:19:58.104Z,98.03
2023-05-27T02:22:24.623Z,98.43
2023-05-27T02:24:51.327Z,98.99
2023-05-27T02:27:17.960Z,98.69
2023-05-27T02:29:44.670Z,99.01
2023-05-27T02:32:11.146Z,98.66
2023-05-27T02:34:38.713Z,99.12
2023-05-27T02:37:05.960Z,99.46
2023-05-27T02:39:32.743Z,98.80
2023-05-27T02:41:59.562Z,98.18
2023-05-27T02:44:26.154Z,98.99
2023-05-27T02:46:53.361Z,98.52
2023-05-27T02:49:20.546Z,99.36
2023-05-27T02:51:47.190Z,98.25
2023-05-27T02:54:14.033Z,98.80
2023-05-27T02:56:41.269Z,99.75
2023-05-27T02:59:08.017Z,99.82
2023-05-27T03:01:34.883Z,100.00
2023-05-27T03:04:01.746Z,100.00
2023-05-27T03:06:28.468Z,100.00
2023-05-27T03:08:55.414Z,100.00
2023-05-27T03:11:22.291Z,100.00
2023-05-27T03:13:48.862Z,100.00
2023-05-27T03:16:15.969Z,100.00
2023-05-27T03:18:42.833Z,100.00
2023-05-27T03:21:09.907Z,100.00
2023-05-27T03:23:37.043Z,100.00
2023-05-27T03:26:03.890Z,100.00
2023-05-27T03:28:31.262Z,100.00
2023-05-27T03:30:57.982Z,100.00
2023-05-27T03:33:25.004Z,100.00
2023-05-27T03:35:52.152Z,100.00
2023-05-27T03:38:18.918Z,100.00
2023-05-27T03:40:45.637Z,100.00
2023-05-27T03:43:12.428Z,100.00
2023-05-27T03:45:40.514Z,100.00
2023-05-27T03:48:07.339Z,100.00
2023-05-27T03:50:34.942Z,100.00
2023-05-27T03:53:01.500Z,100.00
2023-05-27T03:55:28.097Z,100.00
2023-05-27T03:57:54.680Z,100.00
2023-05-27T04:00:21.498Z,100.00
2023-05-27T04:02:49.434Z,100.00
2023-05-27T04:05:17.905Z,100.00
2023-05-27T04:07:45.780Z,100.00
2023-05-27T04:10:12.986Z,100.00
2023-05-27T04:12:41.259Z,100.00
2023-05-27T04:15:09.164Z,100.00
2023-05-27T04:17:36.534Z,100.00
2023-05-27T04:20:12.333Z,100.00
2023-05-27T04:22:40.315Z,100.00
2023-05-27T04:25:07.497Z,99.50
2023-05-27T04:27:34.843Z,98.72
2023-05-27T04:30:02.756Z,99.23
2023-05-27T04:32:29.632Z,99.92
2023-05-27T04:34:56.237Z,100.00
2023-05-27T04:37:23.761Z,99.65
2023-05-27T04:39:50.294Z,100.00
2023-05-27T04:42:17.092Z,100.00
2023-05-27T04:44:43.780Z,100.00
2023-05-27T04:47:11.100Z,99.84
2023-05-27T04:49:37.922Z,99.83
2023-05-27T04:52:08.009Z,100.00
2023-05-27T04:54:35.128Z,100.00
2023-05-27T04:57:01.629Z,100.00
2023-05-27T04:59:46.975Z,99.74
2023-05-27T05:02:22.614Z,98.39
2023-05-27T05:04:51.195Z,98.26
2023-05-27T05:07:20.434Z,99.68
2023-05-27T05:09:47.285Z,98.98
2023-05-27T05:12:13.880Z,99.28
2023-05-27T05:14:40.850Z,99.06
2023-05-27T05:17:07.448Z,97.62
2023-05-27T05:19:34.774Z,98.48
2023-05-27T05:22:01.312Z,99.55
2023-05-27T05:24:28.191Z,98.12
2023-05-27T05:26:54.814Z,97.00
2023-05-27T05:29:21.355Z,97.25
2023-05-27T05:31:48.087Z,97.09
2023-05-27T05:34:14.650Z,98.14
2023-05-27T05:36:41.429Z,98.60
2023-05-27T05:39:08.949Z,99.33
2023-05-27T05:41:35.830Z,98.40
2023-05-27T05:44:02.275Z,96.38
2023-05-27T05:46:29.024Z,97.54
2023-05-27T05:48:56.361Z,97.51
2023-05-27T05:51:24.237Z,96.58
2023-05-27T05:53:51.048Z,97.94
2023-05-27T05:56:17.629Z,97.17
2023-05-27T05:58:44.352Z,96.62
2023-05-27T06:01:12.017Z,95.39
2023-05-27T06:03:38.949Z,94.85
2023-05-27T06:06:05.816Z,95.65
2023-05-27T06:08:33.059Z,95.78
2023-05-27T06:10:59.861Z,95.43
2023-05-27T06:13:26.651Z,94.74
2023-05-27T06:15:53.561Z,94.94
2023-05-27T06:18:20.552Z,92.91
2023-05-27T06:20:47.699Z,94.43
2023-05-27T06:23:14.451Z,95.03
2023-05-27T06:25:41.075Z,93.93
2023-05-27T06:28:08.552Z,94.10
2023-05-27T06:30:35.033Z,93.73
2023-05-27T06:33:01.699Z,92.89
2023-05-27T06:35:28.515Z,91.79
2023-05-27T06:37:55.735Z,91.66
2023-05-27T06:40:23.681Z,90.75
2023-05-27T06:42:50.250Z,90.84
2023-05-27T06:45:16.920Z,91.56
2023-05-27T06:47:44.303Z,89.22
2023-05-27T06:50:11.339Z,88.59
2023-05-27T06:52:37.901Z,88.85
2023-05-27T06:55:04.891Z,87.97
2023-05-27T06:57:31.275Z,86.73
2023-05-27T06:59:57.946Z,87.55
2023-05-27T07:02:24.504Z,88.32
2023-05-27T07:04:51.251Z,85.49
2023-05-27T07:07:17.926Z,85.20
2023-05-27T07:09:44.389Z,84.14
2023-05-27T07:12:11.303Z,85.00
2023-05-27T07:14:37.964Z,85.47
2023-05-27T07:17:04.549Z,84.01
2023-05-27T07:19:31.351Z,86.18
2023-05-27T07:21:57.895Z,85.65
2023-05-27T07:24:24.385Z,82.72
2023-05-27T07:26:50.942Z,82.98
2023-05-27T07:29:17.845Z,79.79
2023-05-27T07:31:44.524Z,79.98
2023-05-27T07:34:11.190Z,80.66
2023-05-27T07:36:38.834Z,78.42
2023-05-27T07:39:05.313Z,78.07
2023-05-27T07:41:32.089Z,77.21
2023-05-27T07:43:58.536Z,76.33
2023-05-27T07:46:25.415Z,76.83
2023-05-27T07:48:52.016Z,75.08
2023-05-27T07:51:18.678Z,76.64
2023-05-27T07:53:46.338Z,75.79
2023-05-27T07:56:12.836Z,76.64
2023-05-27T07:58:41.201Z,77.90
2023-05-27T08:01:07.814Z,76.43
2023-05-27T08:03:34.499Z,74.39
2023-05-27T08:06:01.210Z,77.89
2023-05-27T08:08:27.792Z,76.80
2023-05-27T08:10:54.518Z,75.20
2023-05-27T08:13:21.256Z,75.15
2023-05-27T08:15:48.284Z,75.48
2023-05-27T08:18:15.277Z,74.36
2023-05-27T08:20:42.201Z,72.46
2023-05-27T08:23:09.824Z,72.38
2023-05-27T08:25:36.358Z,71.42
2023-05-27T08:28:03.149Z,73.09
2023-05-27T08:30:30.652Z,71.80
2023-05-27T08:32:58.752Z,72.64
2023-05-27T08:35:25.518Z,72.67
2023-05-27T08:37:52.347Z,72.34
2023-05-27T08:40:20.643Z,74.96
2023-05-27T08:42:50.497Z,73.90
2023-05-27T08:45:17.319Z,71.88
2023-05-27T08:47:43.938Z,69.60
2023-05-27T08:50:11.317Z,74.73
2023-05-27T08:52:55.878Z,72.85
2023-05-27T08:55:23.553Z,74.42
2023-05-27T08:57:58.692Z,71.08
2023-05-27T09:00:27.131Z,70.75
2023-05-27T09:03:00.231Z,71.08
2023-05-27T09:05:28.070Z,67.21
2023-05-27T09:07:55.146Z,66.84
2023-05-27T09:10:21.965Z,69.17
2023-05-27T09:12:51.385Z,66.51
2023-05-27T09:15:18.070Z,68.75
2023-05-27T09:17:46.412Z,66.67
2023-05-27T09:20:14.264Z,66.15
2023-05-27T09:22:42.368Z,66.21
2023-05-27T09:25:10.050Z,61.93
2023-05-27T09:27:38.009Z,63.65
2023-05-27T09:30:09.601Z,64.11
2023-05-27T09:32:37.062Z,64.06
2023-05-27T09:35:08.452Z,61.93
2023-05-27T09:37:35.862Z,63.12
2023-05-27T09:40:09.256Z,61.80
2023-05-27T09:42:54.620Z,64.24
2023-05-27T09:45:22.187Z,67.80
2023-05-27T09:47:50.866Z,67.48
2023-05-27T09:50:18.523Z,62.95
2023-05-27T09:52:54.240Z,56.87
2023-05-27T09:55:31.642Z,59.63
2023-05-27T09:57:58.603Z,62.98
2023-05-27T10:00:25.950Z,59.05
2023-05-27T10:02:52.702Z,59.32
2023-05-27T10:05:21.864Z,58.05
2023-05-27T10:08:08.658Z,55.94
2023-05-27T10:10:35.609Z,50.85
2023-05-27T10:13:03.184Z,48.47
2023-05-27T10:15:34.057Z,49.67
2023-05-27T10:18:07.313Z,47.13
2023-05-27T10:20:43.402Z,39.03
2023-05-27T10:23:14.488Z,34.54
2023-05-27T10:25:47.124Z,32.98
2023-05-27T10:28:24.535Z,30.87
2023-05-27T10:30:51.045Z,29.70
2023-05-27T10:33:30.137Z,28.42
2023-05-27T10:35:56.775Z,29.52
2023-05-27T10:38:23.468Z,27.60
2023-05-27T10:41:00.884Z,28.19
2023-05-27T10:43:34.335Z,25.09
2023-05-27T10:46:06.058Z,23.82
2023-05-27T10:48:34.457Z,23.01
2023-05-27T10:51:01.616Z,21.12
2023-05-27T10:53:30.474Z,25.04
2023-05-27T10:56:00.819Z,25.08
2023-05-27T10:58:28.528Z,29.38
2023-05-27T11:00:57.971Z,29.26
2023-05-27T11:03:28.942Z,29.76
2023-05-27T11:06:06.064Z,30.53
2023-05-27T11:08:34.501Z,32.83
2023-05-27T11:11:07.133Z,31.28
2023-05-27T11:13:40.629Z,28.61
2023-05-27T11:16:08.146Z,27.99
2023-05-27T11:18:40.164Z,34.48
2023-05-27T11:21:08.435Z,28.88
2023-05-27T11:23:36.186Z,29.69
2023-05-27T11:26:03.009Z,30.54
2023-05-27T11:28:30.025Z,29.11
2023-05-27T11:31:04.476Z,32.50
2023-05-27T11:33:37.552Z,28.97
2023-05-27T11:36:09.034Z,30.58
2023-05-27T11:38:54.343Z,29.43
2023-05-27T11:41:23.050Z,30.33
2023-05-27T11:43:55.933Z,29.85
2023-05-27T11:46:23.076Z,30.51
2023-05-27T11:48:50.684Z,30.89
2023-05-27T11:51:17.590Z,30.95
2023-05-27T11:53:47.977Z,32.17
2023-05-27T11:56:15.348Z,31.64
2023-05-27T11:58:42.905Z,29.85
2023-05-27T12:01:09.746Z,28.54
2023-05-27T12:03:36.600Z,30.23
2023-05-27T12:06:04.538Z,31.89
2023-05-27T12:08:31.583Z,28.69
2023-05-27T12:10:58.354Z,27.97
2023-05-27T12:13:25.040Z,29.32
2023-05-27T12:15:52.015Z,26.89
2023-05-27T12:18:19.320Z,31.45
2023-05-27T12:20:46.485Z,29.04
2023-05-27T12:23:13.220Z,28.38
2023-05-27T12:25:40.047Z,31.58
2023-05-27T12:28:10.977Z,28.07
2023-05-27T12:30:37.841Z,29.02
2023-05-27T12:33:06.086Z,29.60
2023-05-27T12:35:34.578Z,29.31
2023-05-27T12:38:01.846Z,28.43
2023-05-27T12:40:28.420Z,27.91
2023-05-27T12:42:54.966Z,30.69
2023-05-27T12:45:24.028Z,32.80
2023-05-27T12:47:50.926Z,34.01
2023-05-27T12:50:17.940Z,30.01
2023-05-27T12:52:48.863Z,28.32
2023-05-27T12:55:18.030Z,29.35
2023-05-27T12:57:46.343Z,28.83
2023-05-27T13:00:13.727Z,28.90
2023-05-27T13:02:40.275Z,28.88
2023-05-27T13:05:08.008Z,28.76
2023-05-27T13:07:35.170Z,28.73
2023-05-27T13:10:06.138Z,29.46
2023-05-27T13:12:35.124Z,28.93
2023-05-27T13:15:07.221Z,27.77
2023-05-27T13:17:34.046Z,31.24
2023-05-27T13:20:01.468Z,28.73
2023-05-27T13:22:28.282Z,27.71
2023-05-27T13:24:54.789Z,28.64
2023-05-27T13:27:21.639Z,28.84
2023-05-27T13:29:48.481Z,28.72
2023-05-27T13:32:15.619Z,28.25
2023-05-27T13:34:42.397Z,29.21
2023-05-27T13:37:11.159Z,29.03
2023-05-27T13:39:43.744Z,32.70
2023-05-27T13:42:11.380Z,26.57
2023-05-27T13:44:37.905Z,24.86
2023-05-27T13:47:04.540Z,27.58
2023-05-27T13:49:31.836Z,26.24
2023-05-27T13:51:58.308Z,29.58
2023-05-27T13:54:24.909Z,28.37
2023-05-27T13:56:51.596Z,27.13
2023-05-27T13:59:18.382Z,26.19
2023-05-27T14:01:45.010Z,27.51
2023-05-27T14:04:12.502Z,27.05
2023-05-27T14:06:39.118Z,26.57
2023-05-27T14:09:06.209Z,29.93
2023-05-27T14:11:32.948Z,26.87
2023-05-27T14:14:00.193Z,26.93
2023-05-27T14:16:27.254Z,26.47
2023-05-27T14:18:54.015Z,26.68
2023-05-27T14:21:20.665Z,27.56
2023-05-27T14:23:47.394Z,26.51
2023-05-27T14:26:14.346Z,26.25
2023-05-27T14:28:41.155Z,25.81
2023-05-27T14:31:07.771Z,26.19
2023-05-27T14:33:34.460Z,25.64
2023-05-27T14:36:01.174Z,25.91
2023-05-27T14:38:27.971Z,26.68
2023-05-27T14:40:54.323Z,27.60
2023-05-27T14:43:20.943Z,26.60
2023-05-27T14:45:47.785Z,28.23
2023-05-27T14:48:14.383Z,24.94
2023-05-27T14:50:41.228Z,26.35
2023-05-27T14:53:07.876Z,26.42
2023-05-27T14:55:36.691Z,25.41
2023-05-27T14:58:06.865Z,25.91
2023-05-27T15:00:33.712Z,24.44
2023-05-27T15:03:00.857Z,27.97
2023-05-27T15:05:27.768Z,27.11
2023-05-27T15:07:54.287Z,27.31
2023-05-27T15:10:20.932Z,28.18
2023-05-27T15:12:48.458Z,26.57
2023-05-27T15:15:19.398Z,27.61
2023-05-27T15:17:46.988Z,27.29
2023-05-27T15:20:15.725Z,26.64
2023-05-27T15:22:43.170Z,26.25
2023-05-27T15:25:10.041Z,25.70
2023-05-27T15:27:36.713Z,27.18
2023-05-27T15:30:07.265Z,27.29
2023-05-27T15:32:34.141Z,28.25
2023-05-27T15:35:04.795Z,25.57
2023-05-27T15:37:32.336Z,26.33
2023-05-27T15:39:58.959Z,27.20
2023-05-27T15:42:26.309Z,28.18
2023-05-27T15:44:52.983Z,25.54
2023-05-27T15:47:19.607Z,28.58
2023-05-27T15:49:46.214Z,25.60
2023-05-27T15:52:13.837Z,26.74
2023-05-27T15:54:41.379Z,27.31
2023-05-27T15:57:09.305Z,27.95
2023-05-27T15:59:37.154Z,28.55
2023-05-27T16:02:05.104Z,29.07
2023-05-27T16:04:32.540Z,27.90
2023-05-27T16:06:59.342Z,28.85
2023-05-27T16:09:26.574Z,25.44
2023-05-27T16:11:54.077Z,26.82
2023-05-27T16:14:20.927Z,27.23
2023-05-27T16:16:47.944Z,25.87
2023-05-27T16:19:14.525Z,25.98
2023-05-27T16:21:43.076Z,26.20
2023-05-27T16:24:11.019Z,26.81
2023-05-27T16:26:37.658Z,29.73
2023-05-27T16:29:04.906Z,27.05
2023-05-27T16:31:31.884Z,27.37
2023-05-27T16:33:59.964Z,28.02
2023-05-27T16:36:27.332Z,26.68
2023-05-27T16:38:54.072Z,31.10
2023-05-27T16:41:21.504Z,27.23
2023-05-27T16:43:48.309Z,28.21
2023-05-27T16:46:14.913Z,28.75
2023-05-27T16:48:41.727Z,29.89
2023-05-27T16:51:08.719Z,30.22
2023-05-27T16:53:35.864Z,27.95
2023-05-27T16:56:03.689Z,28.85
2023-05-27T16:58:30.130Z,31.33
2023-05-27T17:00:59.311Z,27.57
2023-05-27T17:03:29.757Z,28.27
2023-05-27T17:05:57.864Z,30.40
2023-05-27T17:08:25.618Z,28.10
2023-05-27T17:10:52.686Z,29.11
2023-05-27T17:13:19.894Z,29.72
2023-05-27T17:15:47.120Z,30.39
2023-05-27T17:18:14.063Z,29.24
2023-05-27T17:20:40.860Z,29.06
2023-05-27T17:23:08.643Z,30.26
2023-05-27T17:25:36.152Z,30.84
2023-05-27T17:28:03.496Z,29.99
2023-05-27T17:30:31.375Z,30.58
2023-05-27T17:32:57.936Z,32.90
2023-05-27T17:35:24.494Z,32.75
2023-05-27T17:37:51.289Z,31.18
2023-05-27T17:40:18.172Z,29.75
2023-05-27T17:42:45.314Z,32.24
2023-05-27T17:45:12.256Z,33.52
2023-05-27T17:47:39.149Z,32.73
2023-05-27T17:50:06.346Z,34.34
2023-05-27T17:52:33.346Z,34.70
2023-05-27T17:55:00.040Z,35.01
2023-05-27T17:57:26.656Z,37.08
2023-05-27T17:59:53.348Z,37.58
2023-05-27T18:02:20.089Z,39.41
2023-05-27T18:04:47.133Z,40.20
2023-05-27T18:07:13.701Z,38.73
2023-05-27T18:09:40.768Z,40.95
2023-05-27T18:12:07.984Z,41.30
2023-05-27T18:14:35.790Z,42.05
2023-05-27T18:17:06.888Z,42.37
2023-05-27T18:19:34.521Z,43.19
2023-05-27T18:22:01.262Z,42.70
2023-05-27T18:24:27.880Z,42.75
2023-05-27T18:26:54.800Z,43.59
2023-05-27T18:29:21.520Z,44.88
2023-05-27T18:31:48.644Z,45.41
2023-05-27T18:34:16.490Z,45.98
2023-05-27T18:36:43.144Z,46.68
2023-05-27T18:39:09.721Z,47.48
2023-05-27T18:41:36.508Z,48.12
2023-05-27T18:44:04.026Z,47.08
2023-05-27T18:46:30.962Z,47.26
2023-05-27T18:48:57.948Z,48.06
2023-05-27T18:51:25.785Z,49.87
2023-05-27T18:53:52.844Z,50.44
2023-05-27T18:56:21.937Z,51.53
2023-05-27T18:58:48.567Z,51.83
2023-05-27T19:01:15.253Z,50.04
2023-05-27T19:03:42.000Z,49.10
2023-05-27T19:06:08.851Z,50.14
2023-05-27T19:08:35.289Z,50.64
2023-05-27T19:11:02.115Z,51.39
2023-05-27T19:13:29.063Z,52.15
2023-05-27T19:15:55.635Z,52.91
2023-05-27T19:18:22.170Z,54.30
2023-05-27T19:20:48.911Z,55.47
2023-05-27T19:23:15.354Z,56.03
2023-05-27T19:25:42.262Z,55.27
2023-05-27T19:28:08.800Z,55.20
2023-05-27T19:30:35.242Z,55.22
2023-05-27T19:33:02.075Z,56.23
2023-05-27T19:35:28.754Z,59.12
2023-05-27T19:37:55.592Z,56.06
2023-05-27T19:40:22.522Z,56.64
2023-05-27T19:42:49.346Z,57.04
2023-05-27T19:45:16.333Z,56.32
2023-05-27T19:47:44.342Z,58.27
2023-05-27T19:50:11.593Z,56.74
2023-05-27T19:52:39.241Z,58.59
2023-05-27T19:55:06.929Z,58.11
2023-05-27T19:57:34.050Z,56.28
2023-05-27T20:00:00.696Z,56.29
2023-05-27T20:02:27.333Z,56.29
2023-05-27T20:04:54.326Z,59.37
2023-05-27T20:07:21.111Z,58.15
2023-05-27T20:09:48.169Z,63.99
2023-05-27T20:12:14.938Z,60.54
2023-05-27T20:14:41.848Z,60.29
2023-05-27T20:17:08.504Z,61.72
2023-05-27T20:19:34.972Z,63.91
2023-05-27T20:22:02.099Z,63.45
2023-05-27T20:24:28.653Z,61.60
2023-05-27T20:26:55.186Z,62.44
2023-05-27T20:29:21.804Z,63.69
2023-05-27T20:31:48.537Z,64.13
2023-05-27T20:34:15.190Z,63.85
2023-05-27T20:36:41.694Z,64.08
2023-05-27T20:39:08.297Z,66.85
2023-05-27T20:41:34.784Z,63.20
2023-05-27T20:44:01.779Z,62.84
2023-05-27T20:46:29.400Z,65.38
2023-05-27T20:48:56.712Z,64.32
2023-05-27T20:51:24.567Z,65.69
2023-05-27T20:53:52.562Z,64.18
2023-05-27T20:56:19.489Z,64.40
2023-05-27T20:58:47.057Z,69.24
2023-05-27T21:01:13.772Z,70.57
2023-05-27T21:03:40.611Z,69.63
2023-05-27T21:06:07.136Z,70.53
2023-05-27T21:08:34.412Z,67.95
2023-05-27T21:11:01.087Z,67.82
2023-05-27T21:13:27.548Z,67.34
2023-05-27T21:15:54.398Z,66.24
2023-05-27T21:18:21.631Z,67.10
2023-05-27T21:20:48.520Z,68.77
2023-05-27T21:23:15.212Z,69.03
2023-05-27T21:25:42.455Z,71.02
2023-05-27T21:28:09.179Z,69.31
2023-05-27T21:30:35.725Z,70.49
2023-05-27T21:33:02.688Z,69.23
2023-05-27T21:35:29.190Z,69.86
2023-05-27T21:37:56.172Z,71.11
2023-05-27T21:40:22.735Z,72.24
2023-05-27T21:42:49.434Z,72.61
2023-05-27T21:45:16.078Z,72.45
2023-05-27T21:47:42.949Z,73.57
2023-05-27T21:50:11.487Z,73.53
2023-05-27T21:52:38.628Z,73.92
2023-05-27T21:55:05.856Z,74.79
2023-05-27T21:57:32.458Z,75.20
2023-05-27T21:59:59.053Z,75.42
2023-05-27T22:02:25.836Z,75.11
2023-05-27T22:04:53.298Z,75.55
2023-05-27T22:07:20.353Z,77.18
2023-05-27T22:09:48.121Z,79.65
2023-05-27T22:12:15.638Z,80.16
2023-05-27T22:14:42.530Z,77.80
2023-05-27T22:17:09.153Z,76.09
2023-05-27T22:19:35.631Z,75.22
2023-05-27T22:22:02.428Z,75.22
2023-05-27T22:24:29.497Z,75.04
2023-05-27T22:26:56.165Z,76.74
2023-05-27T22:29:22.773Z,78.91
2023-05-27T22:31:49.433Z,77.62
2023-05-27T22:34:16.039Z,77.15
2023-05-27T22:36:42.687Z,77.00
2023-05-27T22:39:10.095Z,77.75
2023-05-27T22:41:37.076Z,81.74
2023-05-27T22:44:04.104Z,79.00
2023-05-27T22:46:31.816Z,81.12
2023-05-27T22:48:59.465Z,79.18
2023-05-27T22:51:26.485Z,78.21
2023-05-27T22:53:53.484Z,80.24
2023-05-27T22:56:20.945Z,82.10
2023-05-27T22:58:47.727Z,81.07
2023-05-27T23:01:14.369Z,81.68
2023-05-27T23:03:41.564Z,83.21
2023-05-27T23:06:08.503Z,83.62
2023-05-27T23:08:35.349Z,83.81
2023-05-27T23:11:03.595Z,84.23
2023-05-27T23:13:30.453Z,85.15
2023-05-27T23:15:58.558Z,84.33
2023-05-27T23:18:25.206Z,84.93
2023-05-27T23:20:51.807Z,85.92
2023-05-27T23:23:18.684Z,83.47
2023-05-27T23:25:45.250Z,86.46
2023-05-27T23:28:12.436Z,83.85
2023-05-27T23:30:38.997Z,85.87
2023-05-27T23:33:06.020Z,87.51
2023-05-27T23:35:32.683Z,86.64
2023-05-27T23:38:00.634Z,86.83
2023-05-27T23:40:27.461Z,87.35
2023-05-27T23:42:53.985Z,86.95
2023-05-27T23:45:20.853Z,87.27
2023-05-27T23:47:47.782Z,87.26
2023-05-27T23:50:14.396Z,87.95
2023-05-27T23:52:41.944Z,88.72
2023-05-27T23:55:09.486Z,87.42
2023-05-27T23:57:36.190Z,88.12
